»·PEaware :: SWA3836 KLAS-KONT

SWA3836 :: KLAS-KONT

FLIGHT INFORMATION

Flight Status: Arrived
Operator:
Southwest Airlines
More flights by this operator :: More flights under this callsign
Pilot: Marcelo T. (6927)
Aircraft: BOEING 737-700
(B737)
More flights by this aircraft type
Origin: KLAS McCarran Intl
United States
Destination: KONT Ontario Intl
United States
More flights between these airports :: More routes between these airports
Route: BOACH6 HEC ZIGGY4
File this flight plan on PilotEdge
Remarks: NAV / RNVD1E1A1
Altitude:
(Current/Filed)
28,000ft
Speed:
(Current/Filed)
444kts
Departed: 27-May-15 03:23 PM
Arrived: 27-May-15 03:57 PM
Distance/Time
Traveled:
170nm/0:34
Distance/Time
To Go:
Arrived

Flight Plot

Page will automatically refresh every two minutes.


Map Options




Map Legend


Flown Route
Filed Route
Departure Airport
Arrival Airport
Navaid (VOR, NDB)
Fix

Horizontal Profiles

Position Reports

Time Latitude Longitude Heading Altitude Ground
Speed
27-May-15 14:50 36.082441 -115.151431 45 2189ft 0kts
27-May-15 14:51 36.082441 -115.151431 45 2189ft 0kts
27-May-15 14:52 36.082441 -115.151431 45 2189ft 0kts
27-May-15 14:53 36.082441 -115.151431 45 2189ft 0kts
27-May-15 14:54 36.082441 -115.151431 45 2189ft 0kts
27-May-15 14:55 36.082441 -115.151431 45 2189ft 0kts
27-May-15 14:56 36.082441 -115.151431 45 2189ft 0kts
27-May-15 14:57 36.082441 -115.151431 45 2189ft 0kts
27-May-15 14:58 36.082441 -115.151431 45 2189ft 0kts
27-May-15 14:59 36.082441 -115.151431 45 2189ft 0kts
27-May-15 15:00 36.082441 -115.151431 45 2189ft 0kts
27-May-15 15:01 36.082441 -115.151431 45 2189ft 0kts
27-May-15 15:02 36.082441 -115.151431 45 2189ft 0kts
27-May-15 15:03 36.082208 -115.151718 45 2189ft 1kts
27-May-15 15:04 36.081868 -115.152121 26 2189ft 1kts
27-May-15 15:05 36.081412 -115.152102 347 2189ft 1kts
27-May-15 15:06 36.081099 -115.151780 282 2189ft 1kts
27-May-15 15:07 36.081090 -115.151730 281 2189ft 0kts
27-May-15 15:08 36.081090 -115.151730 281 2189ft 0kts
27-May-15 15:09 36.081090 -115.151730 281 2189ft 0kts
27-May-15 15:10 36.080175 -115.152036 178 2189ft 9kts
27-May-15 15:11 36.078034 -115.151089 92 2189ft 12kts
27-May-15 15:12 36.077658 -115.145220 94 2189ft 18kts
27-May-15 15:13 36.077538 -115.138369 90 2189ft 21kts
27-May-15 15:14 36.077538 -115.132062 89 2189ft 20kts
27-May-15 15:15 36.077544 -115.125417 89 2189ft 16kts
27-May-15 15:16 36.077399 -115.121401 142 2189ft 0kts
27-May-15 15:17 36.077399 -115.121401 142 2189ft 0kts
27-May-15 15:18 36.076417 -115.122658 270 2189ft 23kts
27-May-15 15:19 36.076715 -115.167300 267 3468ft 168kts
27-May-15 15:20 36.075041 -115.231685 263 5888ft 221kts
27-May-15 15:21 36.024105 -115.281286 181 8837ft 283kts
27-May-15 15:22 35.944315 -115.308118 197 11838ft 338kts
27-May-15 15:23 35.861278 -115.312192 182 14289ft 368kts
27-May-15 15:24 35.755744 -115.303648 175 17614ft 390kts
27-May-15 15:25 35.652983 -115.334680 221 20498ft 402kts
27-May-15 15:26 35.573622 -115.435578 228 22863ft 420kts
27-May-15 15:27 35.494512 -115.541016 228 22957ft 418kts
27-May-15 15:28 35.415301 -115.646873 228 23952ft 424kts
27-May-15 15:29 35.334865 -115.754342 228 26247ft 433kts
27-May-15 15:30 35.252562 -115.863763 228 27941ft 437kts
27-May-15 15:31 35.170569 -115.972370 228 27958ft 431kts
27-May-15 15:32 35.088876 -116.080222 228 27966ft 433kts
27-May-15 15:33 35.007006 -116.188100 228 27967ft 434kts
27-May-15 15:34 34.924630 -116.296357 228 27970ft 433kts
27-May-15 15:35 34.843284 -116.402556 228 27292ft 424kts
27-May-15 15:36 34.762802 -116.505449 226 25577ft 416kts
27-May-15 15:37 34.682861 -116.603240 226 23685ft 396kts
27-May-15 15:38 34.605253 -116.698167 226 21332ft 391kts
27-May-15 15:39 34.529790 -116.790580 226 19295ft 378kts
27-May-15 15:40 34.457676 -116.879091 226 16342ft 361kts
27-May-15 15:41 34.387928 -116.964035 225 13512ft 352kts
27-May-15 15:42 34.319833 -117.046632 224 11704ft 330kts
27-May-15 15:43 34.259636 -117.119507 224 11063ft 281kts
27-May-15 15:44 34.194505 -117.153719 191 10130ft 258kts
27-May-15 15:45 34.121979 -117.173828 191 8067ft 283kts
27-May-15 15:46 34.047686 -117.194574 191 7027ft 256kts
27-May-15 15:47 33.991955 -117.235984 264 5936ft 257kts
27-May-15 15:48 34.013618 -117.314682 292 5264ft 239kts
27-May-15 15:49 34.039056 -117.387674 292 4378ft 229kts
27-May-15 15:50 34.056975 -117.455595 266 3278ft 195kts
27-May-15 15:51 34.055541 -117.515845 270 2131ft 162kts
27-May-15 15:52 34.056583 -117.564881 269 1273ft 136kts
27-May-15 15:53 34.056831 -117.599000 271 952ft 30kts
27-May-15 15:54 34.057955 -117.599175 91 952ft 13kts
27-May-15 15:55 34.057920 -117.596142 90 952ft 12kts
27-May-15 15:56 34.057893 -117.590355 88 952ft 11kts
27-May-15 15:57 34.058883 -117.587921 90 952ft 9kts
27-May-15 15:58 34.059524 -117.587280 359 952ft 0kts
27-May-15 15:59 34.059524 -117.587280 359 952ft 0kts

Navigation Log

Ident Type
Flight plan parsing failed, navigation log unavailable